sensor_id;sensor_type;location;lat;lon;timestamp;P1;durP1;ratioP1;P2;durP2;ratioP2
59486;SDS011;45298;54.918;73.504;2022-11-15T00:02:40;6.78;;;3.40;;
59486;SDS011;45298;54.918;73.504;2022-11-15T00:05:27;5.03;;;2.83;;
59486;SDS011;45298;54.918;73.504;2022-11-15T00:08:14;5.47;;;2.88;;
59486;SDS011;45298;54.918;73.504;2022-11-15T00:11:02;8.30;;;4.20;;
59486;SDS011;45298;54.918;73.504;2022-11-15T00:13:50;8.93;;;4.57;;
59486;SDS011;45298;54.918;73.504;2022-11-15T00:16:37;5.70;;;2.80;;
59486;SDS011;45298;54.918;73.504;2022-11-15T00:19:24;5.45;;;2.90;;
59486;SDS011;45298;54.918;73.504;2022-11-15T00:22:12;7.13;;;2.90;;
59486;SDS011;45298;54.918;73.504;2022-11-15T00:24:59;6.60;;;3.75;;
59486;SDS011;45298;54.918;73.504;2022-11-15T00:27:46;11.90;;;5.97;;
59486;SDS011;45298;54.918;73.504;2022-11-15T00:30:36;58.75;;;28.77;;
59486;SDS011;45298;54.918;73.504;2022-11-15T00:33:23;31.45;;;15.25;;
59486;SDS011;45298;54.918;73.504;2022-11-15T00:36:10;8.68;;;4.60;;
59486;SDS011;45298;54.918;73.504;2022-11-15T00:38:57;12.15;;;6.10;;
59486;SDS011;45298;54.918;73.504;2022-11-15T00:41:44;7.53;;;4.00;;
59486;SDS011;45298;54.918;73.504;2022-11-15T00:44:31;8.82;;;4.35;;
59486;SDS011;45298;54.918;73.504;2022-11-15T00:47:21;7.60;;;4.25;;
59486;SDS011;45298;54.918;73.504;2022-11-15T00:50:09;6.03;;;3.33;;
59486;SDS011;45298;54.918;73.504;2022-11-15T00:53:00;9.20;;;4.63;;
59486;SDS011;45298;54.918;73.504;2022-11-15T00:55:47;6.28;;;3.42;;
59486;SDS011;45298;54.918;73.504;2022-11-15T00:58:34;6.57;;;3.60;;
59486;SDS011;45298;54.918;73.504;2022-11-15T01:01:22;21.27;;;10.63;;
59486;SDS011;45298;54.918;73.504;2022-11-15T01:04:09;10.23;;;4.95;;
59486;SDS011;45298;54.918;73.504;2022-11-15T01:06:56;8.05;;;4.47;;
59486;SDS011;45298;54.918;73.504;2022-11-15T01:09:43;7.78;;;4.20;;
59486;SDS011;45298;54.918;73.504;2022-11-15T01:12:31;7.82;;;3.78;;
59486;SDS011;45298;54.918;73.504;2022-11-15T01:15:18;6.88;;;3.80;;
59486;SDS011;45298;54.918;73.504;2022-11-15T01:18:05;6.60;;;3.10;;
59486;SDS011;45298;54.918;73.504;2022-11-15T01:20:52;6.85;;;3.83;;
59486;SDS011;45298;54.918;73.504;2022-11-15T01:23:39;15.10;;;6.97;;
59486;SDS011;45298;54.918;73.504;2022-11-15T01:26:27;8.60;;;4.30;;
59486;SDS011;45298;54.918;73.504;2022-11-15T01:29:14;33.05;;;14.20;;
59486;SDS011;45298;54.918;73.504;2022-11-15T01:32:01;25.95;;;11.43;;
59486;SDS011;45298;54.918;73.504;2022-11-15T01:34:49;29.23;;;11.63;;
59486;SDS011;45298;54.918;73.504;2022-11-15T01:37:36;6.68;;;3.60;;
59486;SDS011;45298;54.918;73.504;2022-11-15T01:40:23;12.23;;;6.13;;
59486;SDS011;45298;54.918;73.504;2022-11-15T01:46:33;9.75;;;5.00;;
59486;SDS011;45298;54.918;73.504;2022-11-15T01:49:22;11.10;;;5.30;;
59486;SDS011;45298;54.918;73.504;2022-11-15T01:52:13;9.98;;;4.90;;
59486;SDS011;45298;54.918;73.504;2022-11-15T01:55:11;6.80;;;3.60;;
59486;SDS011;45298;54.918;73.504;2022-11-15T01:58:00;7.80;;;4.10;;
59486;SDS011;45298;54.918;73.504;2022-11-15T02:00:50;7.55;;;4.03;;
59486;SDS011;45298;54.918;73.504;2022-11-15T02:03:52;6.93;;;3.90;;
59486;SDS011;45298;54.918;73.504;2022-11-15T02:06:43;6.85;;;3.88;;
59486;SDS011;45298;54.918;73.504;2022-11-15T02:09:32;11.15;;;5.05;;
59486;SDS011;45298;54.918;73.504;2022-11-15T02:12:20;12.30;;;6.32;;
59486;SDS011;45298;54.918;73.504;2022-11-15T02:15:08;10.02;;;5.25;;
59486;SDS011;45298;54.918;73.504;2022-11-15T02:18:04;7.60;;;4.10;;
59486;SDS011;45298;54.918;73.504;2022-11-15T02:30:55;11.27;;;5.43;;
59486;SDS011;45298;54.918;73.504;2022-11-15T02:34:28;7.00;;;3.80;;
59486;SDS011;45298;54.918;73.504;2022-11-15T02:37:16;7.60;;;3.78;;
59486;SDS011;45298;54.918;73.504;2022-11-15T02:40:18;7.13;;;4.35;;
59486;SDS011;45298;54.918;73.504;2022-11-15T02:43:10;7.93;;;4.35;;
59486;SDS011;45298;54.918;73.504;2022-11-15T02:49:53;6.95;;;3.92;;
59486;SDS011;45298;54.918;73.504;2022-11-15T02:52:45;7.65;;;4.15;;
59486;SDS011;45298;54.918;73.504;2022-11-15T02:55:37;8.98;;;3.97;;
59486;SDS011;45298;54.918;73.504;2022-11-15T03:04:58;9.77;;;4.97;;
59486;SDS011;45298;54.918;73.504;2022-11-15T03:14:00;8.10;;;4.07;;
59486;SDS011;45298;54.918;73.504;2022-11-15T03:19:47;9.43;;;4.78;;
59486;SDS011;45298;54.918;73.504;2022-11-15T03:22:41;8.90;;;4.20;;
59486;SDS011;45298;54.918;73.504;2022-11-15T03:25:32;9.38;;;4.63;;
59486;SDS011;45298;54.918;73.504;2022-11-15T03:28:22;6.50;;;2.88;;
59486;SDS011;45298;54.918;73.504;2022-11-15T03:31:14;13.60;;;5.95;;
59486;SDS011;45298;54.918;73.504;2022-11-15T03:37:14;8.13;;;3.33;;
59486;SDS011;45298;54.918;73.504;2022-11-15T03:40:02;6.10;;;3.20;;
59486;SDS011;45298;54.918;73.504;2022-11-15T03:43:02;6.15;;;3.70;;
59486;SDS011;45298;54.918;73.504;2022-11-15T03:46:01;9.38;;;4.22;;
59486;SDS011;45298;54.918;73.504;2022-11-15T03:48:54;7.95;;;4.32;;
59486;SDS011;45298;54.918;73.504;2022-11-15T03:51:56;9.57;;;4.63;;
59486;SDS011;45298;54.918;73.504;2022-11-15T03:54:53;7.25;;;3.97;;
59486;SDS011;45298;54.918;73.504;2022-11-15T03:57:43;6.70;;;3.40;;
59486;SDS011;45298;54.918;73.504;2022-11-15T04:00:30;6.10;;;3.42;;
59486;SDS011;45298;54.918;73.504;2022-11-15T04:03:16;7.60;;;3.83;;
59486;SDS011;45298;54.918;73.504;2022-11-15T04:06:04;5.95;;;3.50;;
59486;SDS011;45298;54.918;73.504;2022-11-15T04:08:51;6.55;;;3.70;;
59486;SDS011;45298;54.918;73.504;2022-11-15T04:11:38;7.07;;;3.90;;
59486;SDS011;45298;54.918;73.504;2022-11-15T04:14:25;7.47;;;3.90;;
59486;SDS011;45298;54.918;73.504;2022-11-15T04:17:12;7.68;;;4.07;;
59486;SDS011;45298;54.918;73.504;2022-11-15T04:19:59;5.70;;;3.40;;
59486;SDS011;45298;54.918;73.504;2022-11-15T04:23:05;6.80;;;3.95;;
59486;SDS011;45298;54.918;73.504;2022-11-15T04:26:18;6.70;;;3.47;;
59486;SDS011;45298;54.918;73.504;2022-11-15T04:29:07;5.55;;;2.97;;
59486;SDS011;45298;54.918;73.504;2022-11-15T04:32:13;11.05;;;5.15;;
59486;SDS011;45298;54.918;73.504;2022-11-15T04:35:00;5.85;;;3.60;;
59486;SDS011;45298;54.918;73.504;2022-11-15T04:37:46;9.00;;;4.63;;
59486;SDS011;45298;54.918;73.504;2022-11-15T04:40:34;7.88;;;4.03;;
59486;SDS011;45298;54.918;73.504;2022-11-15T04:43:22;6.13;;;3.40;;
59486;SDS011;45298;54.918;73.504;2022-11-15T04:46:12;6.50;;;3.75;;
59486;SDS011;45298;54.918;73.504;2022-11-15T04:49:00;7.25;;;4.00;;
59486;SDS011;45298;54.918;73.504;2022-11-15T04:51:47;5.32;;;3.22;;
59486;SDS011;45298;54.918;73.504;2022-11-15T04:54:34;5.57;;;3.10;;
59486;SDS011;45298;54.918;73.504;2022-11-15T04:57:21;6.65;;;3.88;;
59486;SDS011;45298;54.918;73.504;2022-11-15T05:00:13;4.95;;;2.90;;
59486;SDS011;45298;54.918;73.504;2022-11-15T05:03:03;4.18;;;2.60;;
59486;SDS011;45298;54.918;73.504;2022-11-15T05:06:08;4.15;;;2.53;;
59486;SDS011;45298;54.918;73.504;2022-11-15T05:08:55;5.13;;;2.60;;
59486;SDS011;45298;54.918;73.504;2022-11-15T05:11:45;4.50;;;2.60;;
59486;SDS011;45298;54.918;73.504;2022-11-15T05:14:33;3.38;;;2.10;;
59486;SDS011;45298;54.918;73.504;2022-11-15T05:17:20;4.07;;;2.42;;
59486;SDS011;45298;54.918;73.504;2022-11-15T05:20:08;3.50;;;1.90;;
59486;SDS011;45298;54.918;73.504;2022-11-15T05:22:55;3.15;;;1.80;;
59486;SDS011;45298;54.918;73.504;2022-11-15T05:25:42;2.95;;;1.90;;
59486;SDS011;45298;54.918;73.504;2022-11-15T05:28:30;3.53;;;1.98;;
59486;SDS011;45298;54.918;73.504;2022-11-15T05:31:17;3.00;;;1.92;;
59486;SDS011;45298;54.918;73.504;2022-11-15T05:34:04;2.65;;;1.50;;
59486;SDS011;45298;54.918;73.504;2022-11-15T05:36:52;2.90;;;1.90;;
59486;SDS011;45298;54.918;73.504;2022-11-15T05:39:39;2.90;;;1.90;;
59486;SDS011;45298;54.918;73.504;2022-11-15T05:42:26;2.22;;;1.60;;
59486;SDS011;45298;54.918;73.504;2022-11-15T05:45:14;2.05;;;1.42;;
59486;SDS011;45298;54.918;73.504;2022-11-15T05:48:07;1.70;;;1.10;;
59486;SDS011;45298;54.918;73.504;2022-11-15T05:50:56;1.92;;;1.40;;
59486;SDS011;45298;54.918;73.504;2022-11-15T05:53:43;2.42;;;1.40;;
59486;SDS011;45298;54.918;73.504;2022-11-15T05:56:31;2.60;;;1.50;;
59486;SDS011;45298;54.918;73.504;2022-11-15T05:59:18;1.95;;;1.30;;
59486;SDS011;45298;54.918;73.504;2022-11-15T06:02:06;2.22;;;1.60;;
59486;SDS011;45298;54.918;73.504;2022-11-15T06:04:53;2.50;;;1.55;;
59486;SDS011;45298;54.918;73.504;2022-11-15T06:07:43;2.00;;;1.40;;
59486;SDS011;45298;54.918;73.504;2022-11-15T06:10:30;1.73;;;1.20;;
59486;SDS011;45298;54.918;73.504;2022-11-15T06:13:17;2.35;;;1.38;;
59486;SDS011;45298;54.918;73.504;2022-11-15T06:16:04;1.98;;;1.38;;
59486;SDS011;45298;54.918;73.504;2022-11-15T06:18:52;1.60;;;1.20;;
59486;SDS011;45298;54.918;73.504;2022-11-15T06:21:39;1.48;;;1.10;;
59486;SDS011;45298;54.918;73.504;2022-11-15T06:24:26;2.00;;;1.13;;
59486;SDS011;45298;54.918;73.504;2022-11-15T06:27:13;2.00;;;1.20;;
59486;SDS011;45298;54.918;73.504;2022-11-15T06:30:00;3.22;;;1.10;;
59486;SDS011;45298;54.918;73.504;2022-11-15T06:32:50;1.45;;;1.10;;
59486;SDS011;45298;54.918;73.504;2022-11-15T06:35:37;2.17;;;1.15;;
59486;SDS011;45298;54.918;73.504;2022-11-15T06:38:24;1.50;;;1.15;;
59486;SDS011;45298;54.918;73.504;2022-11-15T06:41:14;1.50;;;1.20;;
59486;SDS011;45298;54.918;73.504;2022-11-15T06:44:03;2.58;;;1.30;;
59486;SDS011;45298;54.918;73.504;2022-11-15T06:46:50;2.08;;;1.30;;
59486;SDS011;45298;54.918;73.504;2022-11-15T06:49:37;2.20;;;1.30;;
59486;SDS011;45298;54.918;73.504;2022-11-15T06:52:24;2.28;;;1.33;;
59486;SDS011;45298;54.918;73.504;2022-11-15T06:55:11;3.15;;;1.30;;
59486;SDS011;45298;54.918;73.504;2022-11-15T06:57:58;2.17;;;1.27;;
59486;SDS011;45298;54.918;73.504;2022-11-15T07:00:45;4.10;;;1.50;;
59486;SDS011;45298;54.918;73.504;2022-11-15T07:03:36;3.28;;;1.33;;
59486;SDS011;45298;54.918;73.504;2022-11-15T07:06:24;2.50;;;1.38;;
59486;SDS011;45298;54.918;73.504;2022-11-15T07:09:11;2.15;;;1.40;;
59486;SDS011;45298;54.918;73.504;2022-11-15T07:11:58;1.90;;;1.10;;
59486;SDS011;45298;54.918;73.504;2022-11-15T07:14:52;1.73;;;1.23;;
59486;SDS011;45298;54.918;73.504;2022-11-15T07:17:39;1.52;;;1.10;;
59486;SDS011;45298;54.918;73.504;2022-11-15T07:20:26;1.88;;;1.23;;
59486;SDS011;45298;54.918;73.504;2022-11-15T07:23:13;1.60;;;1.17;;
59486;SDS011;45298;54.918;73.504;2022-11-15T07:26:02;1.50;;;1.05;;
59486;SDS011;45298;54.918;73.504;2022-11-15T07:28:50;1.65;;;1.40;;
59486;SDS011;45298;54.918;73.504;2022-11-15T07:31:36;2.20;;;1.30;;
59486;SDS011;45298;54.918;73.504;2022-11-15T07:34:24;1.98;;;1.35;;
59486;SDS011;45298;54.918;73.504;2022-11-15T07:37:11;1.70;;;1.20;;
59486;SDS011;45298;54.918;73.504;2022-11-15T07:39:58;1.75;;;1.30;;
59486;SDS011;45298;54.918;73.504;2022-11-15T07:42:45;2.00;;;1.40;;
59486;SDS011;45298;54.918;73.504;2022-11-15T07:45:42;1.55;;;1.20;;
59486;SDS011;45298;54.918;73.504;2022-11-15T07:48:30;2.45;;;1.48;;
59486;SDS011;45298;54.918;73.504;2022-11-15T07:51:29;2.50;;;1.50;;
59486;SDS011;45298;54.918;73.504;2022-11-15T07:54:16;2.97;;;1.58;;
59486;SDS011;45298;54.918;73.504;2022-11-15T07:57:03;2.25;;;1.45;;
59486;SDS011;45298;54.918;73.504;2022-11-15T07:59:52;2.15;;;1.20;;
59486;SDS011;45298;54.918;73.504;2022-11-15T08:02:39;1.55;;;0.98;;
59486;SDS011;45298;54.918;73.504;2022-11-15T08:05:28;2.20;;;1.17;;
59486;SDS011;45298;54.918;73.504;2022-11-15T08:08:15;1.50;;;1.00;;
59486;SDS011;45298;54.918;73.504;2022-11-15T08:11:03;2.30;;;1.00;;
59486;SDS011;45298;54.918;73.504;2022-11-15T08:13:50;1.35;;;0.95;;
59486;SDS011;45298;54.918;73.504;2022-11-15T08:16:37;2.00;;;1.00;;
59486;SDS011;45298;54.918;73.504;2022-11-15T08:19:25;1.92;;;1.20;;
59486;SDS011;45298;54.918;73.504;2022-11-15T08:22:12;1.70;;;1.15;;
59486;SDS011;45298;54.918;73.504;2022-11-15T08:24:59;1.30;;;0.95;;
59486;SDS011;45298;54.918;73.504;2022-11-15T08:27:46;1.40;;;0.88;;
59486;SDS011;45298;54.918;73.504;2022-11-15T08:30:34;1.08;;;0.90;;
59486;SDS011;45298;54.918;73.504;2022-11-15T08:33:24;1.17;;;0.98;;
59486;SDS011;45298;54.918;73.504;2022-11-15T08:36:14;2.15;;;1.02;;
59486;SDS011;45298;54.918;73.504;2022-11-15T08:39:03;1.38;;;0.90;;
59486;SDS011;45298;54.918;73.504;2022-11-15T08:41:51;1.48;;;1.02;;
59486;SDS011;45298;54.918;73.504;2022-11-15T08:44:38;1.83;;;1.15;;
59486;SDS011;45298;54.918;73.504;2022-11-15T08:47:25;2.90;;;1.30;;
59486;SDS011;45298;54.918;73.504;2022-11-15T08:50:12;3.83;;;1.20;;
59486;SDS011;45298;54.918;73.504;2022-11-15T08:53:06;1.77;;;1.10;;
59486;SDS011;45298;54.918;73.504;2022-11-15T08:55:55;2.10;;;1.25;;
59486;SDS011;45298;54.918;73.504;2022-11-15T08:58:42;2.35;;;1.30;;
59486;SDS011;45298;54.918;73.504;2022-11-15T09:01:29;1.85;;;1.10;;
59486;SDS011;45298;54.918;73.504;2022-11-15T09:04:16;1.52;;;1.20;;
59486;SDS011;45298;54.918;73.504;2022-11-15T09:07:03;2.05;;;1.17;;
59486;SDS011;45298;54.918;73.504;2022-11-15T09:09:50;2.10;;;1.40;;
59486;SDS011;45298;54.918;73.504;2022-11-15T09:12:37;1.83;;;1.20;;
59486;SDS011;45298;54.918;73.504;2022-11-15T09:15:24;2.33;;;1.10;;
59486;SDS011;45298;54.918;73.504;2022-11-15T09:18:11;2.13;;;1.40;;
59486;SDS011;45298;54.918;73.504;2022-11-15T09:20:59;2.70;;;1.90;;
59486;SDS011;45298;54.918;73.504;2022-11-15T09:23:47;2.88;;;1.70;;
59486;SDS011;45298;54.918;73.504;2022-11-15T09:26:38;2.95;;;1.60;;
59486;SDS011;45298;54.918;73.504;2022-11-15T09:29:25;3.15;;;2.20;;
59486;SDS011;45298;54.918;73.504;2022-11-15T09:32:13;5.43;;;2.70;;
59486;SDS011;45298;54.918;73.504;2022-11-15T09:35:00;5.35;;;3.20;;
59486;SDS011;45298;54.918;73.504;2022-11-15T09:37:47;5.93;;;3.75;;
59486;SDS011;45298;54.918;73.504;2022-11-15T09:40:40;7.28;;;4.22;;
59486;SDS011;45298;54.918;73.504;2022-11-15T09:46:56;10.10;;;4.95;;
59486;SDS011;45298;54.918;73.504;2022-11-15T09:49:55;13.20;;;6.85;;
59486;SDS011;45298;54.918;73.504;2022-11-15T09:52:33;11.00;;;6.03;;
59486;SDS011;45298;54.918;73.504;2022-11-15T09:55:04;11.05;;;5.20;;
59486;SDS011;45298;54.918;73.504;2022-11-15T10:00:24;4.97;;;2.90;;
59486;SDS011;45298;54.918;73.504;2022-11-15T10:05:54;7.05;;;2.83;;
59486;SDS011;45298;54.918;73.504;2022-11-15T10:11:22;9.00;;;4.63;;
59486;SDS011;45298;54.918;73.504;2022-11-15T10:14:07;11.68;;;5.85;;
59486;SDS011;45298;54.918;73.504;2022-11-15T10:16:45;10.85;;;6.03;;
59486;SDS011;45298;54.918;73.504;2022-11-15T10:27:40;11.95;;;6.25;;
59486;SDS011;45298;54.918;73.504;2022-11-15T10:30:13;13.73;;;6.90;;
59486;SDS011;45298;54.918;73.504;2022-11-15T10:32:45;20.42;;;9.95;;
59486;SDS011;45298;54.918;73.504;2022-11-15T10:35:23;19.05;;;10.23;;
59486;SDS011;45298;54.918;73.504;2022-11-15T10:38:07;16.55;;;9.15;;
59486;SDS011;45298;54.918;73.504;2022-11-15T10:40:42;16.25;;;8.80;;
59486;SDS011;45298;54.918;73.504;2022-11-15T10:43:14;32.58;;;16.20;;
59486;SDS011;45298;54.918;73.504;2022-11-15T10:45:46;30.60;;;15.30;;
59486;SDS011;45298;54.918;73.504;2022-11-15T10:48:20;27.98;;;14.27;;
59486;SDS011;45298;54.918;73.504;2022-11-15T10:50:50;41.00;;;18.13;;
59486;SDS011;45298;54.918;73.504;2022-11-15T10:53:29;22.42;;;12.98;;
59486;SDS011;45298;54.918;73.504;2022-11-15T10:56:07;35.05;;;14.40;;
59486;SDS011;45298;54.918;73.504;2022-11-15T10:58:41;24.55;;;12.43;;
59486;SDS011;45298;54.918;73.504;2022-11-15T11:01:16;27.38;;;13.73;;
59486;SDS011;45298;54.918;73.504;2022-11-15T11:06:45;42.83;;;19.65;;
59486;SDS011;45298;54.918;73.504;2022-11-15T11:12:04;19.77;;;9.95;;
59486;SDS011;45298;54.918;73.504;2022-11-15T11:14:38;31.98;;;15.73;;
59486;SDS011;45298;54.918;73.504;2022-11-15T11:28:53;21.05;;;9.38;;
59486;SDS011;45298;54.918;73.504;2022-11-15T11:48:41;38.47;;;16.50;;
59486;SDS011;45298;54.918;73.504;2022-11-15T11:51:36;28.55;;;13.80;;
59486;SDS011;45298;54.918;73.504;2022-11-15T11:57:05;69.85;;;39.72;;
59486;SDS011;45298;54.918;73.504;2022-11-15T11:59:45;45.10;;;19.35;;
59486;SDS011;45298;54.918;73.504;2022-11-15T12:05:25;42.40;;;17.35;;
59486;SDS011;45298;54.918;73.504;2022-11-15T12:08:01;47.00;;;19.98;;
59486;SDS011;45298;54.918;73.504;2022-11-15T12:10:53;29.45;;;13.30;;
59486;SDS011;45298;54.918;73.504;2022-11-15T12:13:29;66.05;;;27.38;;
59486;SDS011;45298;54.918;73.504;2022-11-15T12:16:05;57.20;;;24.85;;
59486;SDS011;45298;54.918;73.504;2022-11-15T12:18:42;28.63;;;13.80;;
59486;SDS011;45298;54.918;73.504;2022-11-15T12:21:18;35.70;;;16.13;;
59486;SDS011;45298;54.918;73.504;2022-11-15T12:24:02;38.13;;;17.80;;
59486;SDS011;45298;54.918;73.504;2022-11-15T12:26:47;23.58;;;12.43;;
59486;SDS011;45298;54.918;73.504;2022-11-15T12:29:38;29.80;;;13.77;;
59486;SDS011;45298;54.918;73.504;2022-11-15T12:32:21;33.63;;;14.75;;
59486;SDS011;45298;54.918;73.504;2022-11-15T12:34:54;35.47;;;16.90;;
59486;SDS011;45298;54.918;73.504;2022-11-15T12:40:27;25.63;;;12.70;;
59486;SDS011;45298;54.918;73.504;2022-11-15T12:42:57;31.67;;;15.73;;
59486;SDS011;45298;54.918;73.504;2022-11-15T12:45:44;40.97;;;18.88;;
59486;SDS011;45298;54.918;73.504;2022-11-15T13:06:44;39.25;;;17.83;;
59486;SDS011;45298;54.918;73.504;2022-11-15T13:12:02;69.18;;;28.73;;
59486;SDS011;45298;54.918;73.504;2022-11-15T13:14:50;65.05;;;26.70;;
59486;SDS011;45298;54.918;73.504;2022-11-15T13:17:28;41.20;;;18.83;;
59486;SDS011;45298;54.918;73.504;2022-11-15T13:28:11;34.65;;;16.50;;
59486;SDS011;45298;54.918;73.504;2022-11-15T13:33:33;25.10;;;13.50;;
59486;SDS011;45298;54.918;73.504;2022-11-15T13:36:09;27.70;;;13.85;;
59486;SDS011;45298;54.918;73.504;2022-11-15T13:38:43;28.13;;;14.93;;
59486;SDS011;45298;54.918;73.504;2022-11-15T13:43:51;23.25;;;12.07;;
59486;SDS011;45298;54.918;73.504;2022-11-15T13:46:25;21.50;;;10.57;;
59486;SDS011;45298;54.918;73.504;2022-11-15T13:48:58;18.95;;;9.88;;
59486;SDS011;45298;54.918;73.504;2022-11-15T13:51:37;20.25;;;11.20;;
59486;SDS011;45298;54.918;73.504;2022-11-15T13:56:44;27.77;;;13.43;;
59486;SDS011;45298;54.918;73.504;2022-11-15T13:59:35;24.83;;;11.15;;
59486;SDS011;45298;54.918;73.504;2022-11-15T14:02:13;21.70;;;11.25;;
59486;SDS011;45298;54.918;73.504;2022-11-15T14:04:50;22.33;;;11.57;;
59486;SDS011;45298;54.918;73.504;2022-11-15T14:07:25;26.10;;;12.77;;
59486;SDS011;45298;54.918;73.504;2022-11-15T14:09:56;19.42;;;9.75;;
59486;SDS011;45298;54.918;73.504;2022-11-15T14:12:27;25.40;;;12.68;;
59486;SDS011;45298;54.918;73.504;2022-11-15T14:18:01;15.57;;;8.10;;
59486;SDS011;45298;54.918;73.504;2022-11-15T14:20:35;17.30;;;9.20;;
59486;SDS011;45298;54.918;73.504;2022-11-15T14:23:19;17.08;;;7.70;;
59486;SDS011;45298;54.918;73.504;2022-11-15T14:25:58;18.63;;;9.10;;
59486;SDS011;45298;54.918;73.504;2022-11-15T14:28:33;13.75;;;7.00;;
59486;SDS011;45298;54.918;73.504;2022-11-15T14:31:07;23.58;;;11.23;;
59486;SDS011;45298;54.918;73.504;2022-11-15T14:33:41;34.92;;;15.48;;
59486;SDS011;45298;54.918;73.504;2022-11-15T14:38:42;28.10;;;14.75;;
59486;SDS011;45298;54.918;73.504;2022-11-15T14:41:17;21.17;;;10.90;;
59486;SDS011;45298;54.918;73.504;2022-11-15T14:43:46;21.63;;;11.32;;
59486;SDS011;45298;54.918;73.504;2022-11-15T14:46:15;20.90;;;11.50;;
59486;SDS011;45298;54.918;73.504;2022-11-15T14:48:44;19.70;;;10.85;;
59486;SDS011;45298;54.918;73.504;2022-11-15T14:51:13;22.13;;;10.82;;
59486;SDS011;45298;54.918;73.504;2022-11-15T14:57:23;19.00;;;9.95;;
59486;SDS011;45298;54.918;73.504;2022-11-15T14:59:52;17.38;;;8.88;;
59486;SDS011;45298;54.918;73.504;2022-11-15T15:05:39;21.00;;;10.25;;
59486;SDS011;45298;54.918;73.504;2022-11-15T15:08:10;28.88;;;12.57;;
59486;SDS011;45298;54.918;73.504;2022-11-15T15:10:43;15.13;;;8.25;;
59486;SDS011;45298;54.918;73.504;2022-11-15T15:13:23;17.02;;;8.73;;
59486;SDS011;45298;54.918;73.504;2022-11-15T15:15:52;12.10;;;7.03;;
59486;SDS011;45298;54.918;73.504;2022-11-15T15:18:21;17.50;;;8.23;;
59486;SDS011;45298;54.918;73.504;2022-11-15T15:20:57;11.40;;;6.68;;
59486;SDS011;45298;54.918;73.504;2022-11-15T15:23:30;13.65;;;7.38;;
59486;SDS011;45298;54.918;73.504;2022-11-15T15:25:59;17.20;;;8.93;;
59486;SDS011;45298;54.918;73.504;2022-11-15T15:28:28;17.25;;;9.63;;
59486;SDS011;45298;54.918;73.504;2022-11-15T15:31:01;18.55;;;9.73;;
59486;SDS011;45298;54.918;73.504;2022-11-15T15:33:30;17.42;;;8.85;;
59486;SDS011;45298;54.918;73.504;2022-11-15T15:35:59;15.05;;;7.90;;
59486;SDS011;45298;54.918;73.504;2022-11-15T15:38:28;12.65;;;7.15;;
59486;SDS011;45298;54.918;73.504;2022-11-15T15:40:58;27.30;;;14.02;;
59486;SDS011;45298;54.918;73.504;2022-11-15T15:43:29;20.98;;;12.43;;
59486;SDS011;45298;54.918;73.504;2022-11-15T15:45:58;21.17;;;11.88;;
59486;SDS011;45298;54.918;73.504;2022-11-15T15:48:27;17.63;;;9.68;;
59486;SDS011;45298;54.918;73.504;2022-11-15T15:50:57;38.22;;;19.50;;
59486;SDS011;45298;54.918;73.504;2022-11-15T15:53:26;18.17;;;10.40;;
59486;SDS011;45298;54.918;73.504;2022-11-15T15:55:55;29.92;;;14.52;;
59486;SDS011;45298;54.918;73.504;2022-11-15T15:58:26;20.65;;;10.27;;
59486;SDS011;45298;54.918;73.504;2022-11-15T16:00:56;14.57;;;7.95;;
59486;SDS011;45298;54.918;73.504;2022-11-15T16:03:24;18.95;;;10.32;;
59486;SDS011;45298;54.918;73.504;2022-11-15T16:05:55;12.88;;;6.70;;
59486;SDS011;45298;54.918;73.504;2022-11-15T16:08:24;13.15;;;6.78;;
59486;SDS011;45298;54.918;73.504;2022-11-15T16:11:14;23.65;;;11.60;;
59486;SDS011;45298;54.918;73.504;2022-11-15T16:13:42;14.20;;;7.95;;
59486;SDS011;45298;54.918;73.504;2022-11-15T16:16:12;24.30;;;12.02;;
59486;SDS011;45298;54.918;73.504;2022-11-15T16:18:41;46.50;;;20.65;;
59486;SDS011;45298;54.918;73.504;2022-11-15T16:21:10;58.97;;;23.67;;
59486;SDS011;45298;54.918;73.504;2022-11-15T16:23:39;15.43;;;7.07;;
59486;SDS011;45298;54.918;73.504;2022-11-15T16:26:27;53.50;;;22.73;;
59486;SDS011;45298;54.918;73.504;2022-11-15T16:28:57;12.27;;;5.70;;
59486;SDS011;45298;54.918;73.504;2022-11-15T16:31:26;10.48;;;5.22;;
59486;SDS011;45298;54.918;73.504;2022-11-15T16:33:55;62.42;;;23.77;;
59486;SDS011;45298;54.918;73.504;2022-11-15T16:36:24;14.30;;;6.43;;
59486;SDS011;45298;54.918;73.504;2022-11-15T16:38:57;11.40;;;6.32;;
59486;SDS011;45298;54.918;73.504;2022-11-15T16:41:26;8.13;;;4.68;;
59486;SDS011;45298;54.918;73.504;2022-11-15T16:43:55;24.90;;;11.25;;
59486;SDS011;45298;54.918;73.504;2022-11-15T16:46:25;15.80;;;8.15;;
59486;SDS011;45298;54.918;73.504;2022-11-15T16:48:55;16.10;;;7.60;;
59486;SDS011;45298;54.918;73.504;2022-11-15T16:51:24;16.95;;;8.13;;
59486;SDS011;45298;54.918;73.504;2022-11-15T16:53:53;15.57;;;7.78;;
59486;SDS011;45298;54.918;73.504;2022-11-15T16:56:28;17.48;;;7.93;;
59486;SDS011;45298;54.918;73.504;2022-11-15T16:58:58;11.68;;;6.20;;
59486;SDS011;45298;54.918;73.504;2022-11-15T17:01:34;18.75;;;8.88;;
59486;SDS011;45298;54.918;73.504;2022-11-15T17:04:17;16.90;;;8.15;;
59486;SDS011;45298;54.918;73.504;2022-11-15T17:06:49;13.68;;;6.68;;
59486;SDS011;45298;54.918;73.504;2022-11-15T17:09:19;10.90;;;5.88;;
59486;SDS011;45298;54.918;73.504;2022-11-15T17:11:52;9.43;;;4.32;;
59486;SDS011;45298;54.918;73.504;2022-11-15T17:14:21;13.77;;;5.85;;
59486;SDS011;45298;54.918;73.504;2022-11-15T17:16:50;9.60;;;3.75;;
59486;SDS011;45298;54.918;73.504;2022-11-15T17:19:20;10.82;;;4.45;;
59486;SDS011;45298;54.918;73.504;2022-11-15T17:21:49;17.67;;;7.93;;
59486;SDS011;45298;54.918;73.504;2022-11-15T17:24:18;18.70;;;8.38;;
59486;SDS011;45298;54.918;73.504;2022-11-15T17:26:50;9.52;;;4.22;;
59486;SDS011;45298;54.918;73.504;2022-11-15T17:29:19;10.45;;;3.63;;
59486;SDS011;45298;54.918;73.504;2022-11-15T17:31:48;5.38;;;2.85;;
59486;SDS011;45298;54.918;73.504;2022-11-15T17:34:17;7.00;;;3.67;;
59486;SDS011;45298;54.918;73.504;2022-11-15T17:36:45;12.98;;;5.28;;
59486;SDS011;45298;54.918;73.504;2022-11-15T17:39:15;9.48;;;4.13;;
59486;SDS011;45298;54.918;73.504;2022-11-15T17:41:46;9.32;;;4.18;;
59486;SDS011;45298;54.918;73.504;2022-11-15T17:44:15;12.90;;;5.47;;
59486;SDS011;45298;54.918;73.504;2022-11-15T17:46:43;11.75;;;4.43;;
59486;SDS011;45298;54.918;73.504;2022-11-15T17:49:12;8.13;;;4.07;;
59486;SDS011;45298;54.918;73.504;2022-11-15T17:51:41;11.75;;;5.05;;
59486;SDS011;45298;54.918;73.504;2022-11-15T17:56:44;19.90;;;6.80;;
59486;SDS011;45298;54.918;73.504;2022-11-15T17:59:12;8.90;;;4.05;;
59486;SDS011;45298;54.918;73.504;2022-11-15T18:01:47;12.02;;;4.82;;
59486;SDS011;45298;54.918;73.504;2022-11-15T18:04:16;10.73;;;5.18;;
59486;SDS011;45298;54.918;73.504;2022-11-15T18:06:45;11.10;;;4.50;;
59486;SDS011;45298;54.918;73.504;2022-11-15T18:09:13;9.95;;;4.65;;
59486;SDS011;45298;54.918;73.504;2022-11-15T18:11:42;10.45;;;4.50;;
59486;SDS011;45298;54.918;73.504;2022-11-15T18:14:13;8.73;;;4.68;;
59486;SDS011;45298;54.918;73.504;2022-11-15T18:16:42;10.60;;;5.57;;
59486;SDS011;45298;54.918;73.504;2022-11-15T18:19:11;8.32;;;4.55;;
59486;SDS011;45298;54.918;73.504;2022-11-15T18:21:41;8.68;;;4.35;;
59486;SDS011;45298;54.918;73.504;2022-11-15T18:24:24;19.98;;;9.10;;
59486;SDS011;45298;54.918;73.504;2022-11-15T18:27:02;9.32;;;4.82;;